Albuquerque, NM

10:06 PM MST on March 05, 2015 (GMT -0700)
Taylor Ranch (Golf Course & Butterfield) | Change Station
CLOSE
Current Station
Personal Weather Station
Location: Albuquerque, NM
Elevation: 5290 ft
Nearby Weather Stations

Elev 5290 ft 35.17 °N, 106.69 °W | Updated 40 seconds ago

Clear
Clear
40.1 °F
Feels Like 40 °F
N
3.0
Wind Variable Wind from NW
Gusts 4.0 mph

Today
High -- | Low -- °F
--% Chance of Precip.
Yesterday
High -- | Low -- °F
Precip. -- in
6:31 AM 6:05 PM
Full, 100% visible
Pressure 30.38 in
Visibility 10.0 miles
Clouds Clear
Windchill 40 °F
Dew Point 12 °F
Humidity 31%
Rainfall in
Snow Depth Not available.
UV 0 out of 12
Pollen 4.50 out of 12
Air Quality Not available.
Flu Activity Not available.
METAR KABQ 060452Z 35005KT 10SM CLR 05/M11 A3038 RMK AO2 SLP286 T00501106

More Conditions Fewer Conditions

Pressure 30.38 in
Visibility 10.0 miles
Clouds Clear
Windchill 40 °F
Dew Point 12 °F
Humidity 31%
Rainfall in
Snow Depth Not available.
UV 0 out of 12
Pollen 4.50 out of 12
Air Quality Not available.
Flu Activity Not available.
METAR KABQ 060452Z 35005KT 10SM CLR 05/M11 A3038 RMK AO2 SLP286 T00501106

More Conditions Fewer Conditions

10-Day Weather Forecast

Almanac

Astronomy

Mar. 05, 2015 Rise Set
Actual Time
Civil Twilight
Nautical Twilight
Astronomical Twilight
Moon
Length of Visible Light
Length of Day
Tomorrow will be .
, % of the Moon is Illuminated

Today's Extremes

State Highs State Lows

Community

WunderPhotos

Upload Photos

1,803,184 photos uploaded!

WunderBlogs® & News

Nearby

Air Quality

  Air Quality AQ Index Pollutant
Not available.

Snow Depth

Station Depth Elevation

Earthquake Activity

City Distance Mag. Time & Date
Minimum magnitude displayed is 2.5.

Coastal Water Temperatures

Place Temperature

Nearby Weather Stations